Time;durP1;ratioP1;P1;durP2;ratioP2;P2;SDS_P1;SDS_P2;PMS_P1;PMS_P2;Temp;Humidity;BMP_temperature;BMP_pressure;BME280_temperature;BME280_humidity;BME280_pressure;Samples;Min_cycle;Max_cycle;Signal;HPM_P1;HPM_P2
2024/03/21 00:01:35;;;;;;;15.15;5.82;;;;;;;;;;4874050;29;20749;-72
2024/03/21 00:04:05;;;;;;;9.75;5.70;;;;;;;;;;4859400;29;20061;-74
2024/03/21 00:06:42;;;;;;;9.45;5.80;;;;;;;;;;4843555;29;20049;-72
2024/03/21 00:09:11;;;;;;;16.63;6.20;;;;;;;;;;4873761;29;20048;-73
2024/03/21 00:11:39;;;;;;;;;;;;;;;;;;4871577;29;20041;-72
2024/03/21 00:14:08;;;;;;;12.30;5.00;;;;;;;;;;4869259;29;19927;-73
2024/03/21 00:16:37;;;;;;;9.32;4.60;;;;;;;;;;4867319;29;20385;-76
2024/03/21 00:19:06;;;;;;;;;;;;;;;;;;4869211;29;20053;-73
2024/03/21 00:21:34;;;;;;;7.72;4.85;;;;;;;;;;4868135;29;19927;-73
2024/03/21 00:24:03;;;;;;;13.00;4.65;;;;;;;;;;4868492;29;20052;-78
2024/03/21 00:26:31;;;;;;;10.93;4.22;;;;;;;;;;4868981;29;20049;-73
2024/03/21 00:29:00;;;;;;;11.00;4.38;;;;;;;;;;4868827;29;20049;-72
2024/03/21 00:31:28;;;;;;;10.60;5.00;;;;;;;;;;4868354;29;20393;-71
2024/03/21 00:33:57;;;;;;;7.97;4.53;;;;;;;;;;4869067;29;20056;-75
2024/03/21 00:36:26;;;;;;;9.90;3.47;;;;;;;;;;4868419;29;20041;-73
2024/03/21 00:38:54;;;;;;;12.60;3.60;;;;;;;;;;4868758;29;20127;-75
2024/03/21 00:41:22;;;;;;;8.23;3.20;;;;;;;;;;4868255;29;20053;-72
2024/03/21 00:43:51;;;;;;;8.35;3.97;;;;;;;;;;4868743;29;20056;-71
2024/03/21 00:46:19;;;;;;;7.72;3.90;;;;;;;;;;4868643;29;20045;-72
2024/03/21 00:48:48;;;;;;;7.72;3.90;;;;;;;;;;4852977;29;20047;-72
2024/03/21 00:51:16;;;;;;;10.35;4.25;;;;;;;;;;4853589;29;20042;-72
2024/03/21 00:53:45;;;;;;;8.27;2.95;;;;;;;;;;4852205;29;20060;-76
2024/03/21 00:56:13;;;;;;;10.20;3.72;;;;;;;;;;4867830;29;20070;-75
2024/03/21 00:58:42;;;;;;;8.95;4.13;;;;;;;;;;4867334;29;20083;-74
2024/03/21 01:01:10;;;;;;;7.47;4.03;;;;;;;;;;4866286;29;20048;-73
2024/03/21 01:03:40;;;;;;;9.43;4.40;;;;;;;;;;4866352;29;20056;-74
2024/03/21 01:06:08;;;;;;;9.05;4.45;;;;;;;;;;4866377;29;20045;-73
2024/03/21 01:08:37;;;;;;;11.07;6.03;;;;;;;;;;4867578;29;20052;-72
2024/03/21 01:11:06;;;;;;;8.93;4.60;;;;;;;;;;4866979;29;20045;-74
2024/03/21 01:13:34;;;;;;;;;;;;;;;;;;4867659;29;20063;-74
2024/03/21 01:16:07;;;;;;;14.60;8.32;;;;;;;;;;4851716;29;19924;-76
2024/03/21 01:18:36;;;;;;;13.80;8.07;;;;;;;;;;4866681;29;20056;-74
2024/03/21 01:21:05;;;;;;;13.82;8.68;;;;;;;;;;4868690;29;20068;-72
2024/03/21 01:23:34;;;;;;;13.40;7.90;;;;;;;;;;4868281;29;20045;-73
2024/03/21 01:26:04;;;;;;;15.98;8.75;;;;;;;;;;4868322;29;20049;-73
2024/03/21 01:28:32;;;;;;;13.88;9.98;;;;;;;;;;4868105;29;20048;-74
2024/03/21 01:31:14;;;;;;;15.20;9.57;;;;;;;;;;4868364;29;20052;-74
2024/03/21 01:33:43;;;;;;;16.30;9.45;;;;;;;;;;4868413;29;20049;-72
2024/03/21 01:36:11;;;;;;;11.88;7.75;;;;;;;;;;4868363;29;20523;-71
2024/03/21 01:38:39;;;;;;;12.80;6.97;;;;;;;;;;4867903;29;20055;-75
2024/03/21 01:41:08;;;;;;;11.43;7.65;;;;;;;;;;4867782;29;20051;-75
2024/03/21 01:43:38;;;;;;;;;;;;;;;;;;4868123;29;20053;-74
2024/03/21 01:46:22;;;;;;;12.98;6.07;;;;;;;;;;4867864;29;19924;-74
2024/03/21 01:48:51;;;;;;;13.38;6.45;;;;;;;;;;4867425;29;20065;-74
2024/03/21 01:51:25;;;;;;;13.32;5.53;;;;;;;;;;4851181;29;20067;-73
2024/03/21 01:53:56;;;;;;;9.45;4.75;;;;;;;;;;4867651;29;20057;-74
2024/03/21 01:56:25;;;;;;;8.82;4.75;;;;;;;;;;4867092;29;20048;-75
2024/03/21 01:58:54;;;;;;;6.80;4.63;;;;;;;;;;4867762;29;20071;-75
2024/03/21 02:01:26;;;;;;;13.75;6.18;;;;;;;;;;4867483;29;20049;-72
2024/03/21 02:03:57;;;;;;;11.90;5.85;;;;;;;;;;4867540;29;20056;-75
2024/03/21 02:06:31;;;;;;;11.68;5.35;;;;;;;;;;4852396;29;21036;-74
2024/03/21 02:09:01;;;;;;;7.05;3.75;;;;;;;;;;4867856;29;20417;-74
2024/03/21 02:11:29;;;;;;;15.10;3.97;;;;;;;;;;4867798;29;20394;-72
2024/03/21 02:13:58;;;;;;;11.73;4.57;;;;;;;;;;4868613;29;20524;-73
2024/03/21 02:16:27;;;;;;;8.70;4.55;;;;;;;;;;4867507;29;20056;-73
2024/03/21 02:18:56;;;;;;;8.52;4.95;;;;;;;;;;4866657;29;20160;-75
2024/03/21 02:24:11;;;;;;;11.52;5.35;;;;;;;;;;4866984;29;20049;-72
2024/03/21 02:26:40;;;;;;;12.57;5.13;;;;;;;;;;4867366;29;20064;-73
2024/03/21 02:29:08;;;;;;;12.10;4.68;;;;;;;;;;4867139;29;20049;-73
2024/03/21 02:31:36;;;;;;;7.47;4.82;;;;;;;;;;4867222;29;20049;-74
2024/03/21 02:34:05;;;;;;;9.45;4.85;;;;;;;;;;4867403;29;20041;-74
2024/03/21 02:36:33;;;;;;;8.20;4.25;;;;;;;;;;4851434;29;20065;-74
2024/03/21 02:39:03;;;;;;;8.13;4.25;;;;;;;;;;4850799;29;20061;-74
2024/03/21 02:41:31;;;;;;;11.43;4.65;;;;;;;;;;4867649;29;20065;-74
2024/03/21 02:43:59;;;;;;;9.77;4.53;;;;;;;;;;4867735;29;20060;-73
2024/03/21 02:46:27;;;;;;;6.78;3.30;;;;;;;;;;4867560;29;20685;-73
2024/03/21 02:48:57;;;;;;;6.82;3.90;;;;;;;;;;4867078;29;20060;-75
2024/03/21 02:51:25;;;;;;;5.55;3.78;;;;;;;;;;4867031;29;20457;-74
2024/03/21 02:53:54;;;;;;;7.32;3.95;;;;;;;;;;4866706;29;20060;-73
2024/03/21 02:56:22;;;;;;;7.97;3.88;;;;;;;;;;4852441;29;20053;-74
2024/03/21 02:58:50;;;;;;;4.95;3.33;;;;;;;;;;4866803;29;20068;-72
2024/03/21 03:01:19;;;;;;;5.97;4.05;;;;;;;;;;4866917;29;20053;-74
2024/03/21 03:03:48;;;;;;;4.93;3.35;;;;;;;;;;4866814;29;20045;-73
2024/03/21 03:06:20;;;;;;;7.15;4.00;;;;;;;;;;4867293;29;20045;-73
2024/03/21 03:08:49;;;;;;;7.60;4.38;;;;;;;;;;4866849;29;20416;-72
2024/03/21 03:11:17;;;;;;;9.27;4.53;;;;;;;;;;4866541;29;20056;-72
2024/03/21 03:13:45;;;;;;;11.45;5.07;;;;;;;;;;4866903;29;20735;-70
2024/03/21 03:16:14;;;;;;;8.90;5.25;;;;;;;;;;4851171;29;20045;-73
2024/03/21 03:18:43;;;;;;;15.35;5.32;;;;;;;;;;4870125;29;20044;-71
2024/03/21 03:21:11;;;;;;;12.70;5.60;;;;;;;;;;4869777;29;20056;-73
2024/03/21 03:23:40;;;;;;;11.63;5.55;;;;;;;;;;4869772;29;20588;-70
2024/03/21 03:26:08;;;;;;;11.57;5.57;;;;;;;;;;4870159;29;20056;-74
2024/03/21 03:28:37;;;;;;;13.05;5.47;;;;;;;;;;4855056;29;20056;-72
2024/03/21 03:31:05;;;;;;;13.63;5.60;;;;;;;;;;4870209;29;20041;-72
2024/03/21 03:36:20;;;;;;;13.30;5.55;;;;;;;;;;4870288;29;20075;-73
2024/03/21 03:38:48;;;;;;;9.82;4.90;;;;;;;;;;4870034;29;20538;-72
2024/03/21 03:41:17;;;;;;;14.85;5.93;;;;;;;;;;4854356;29;20440;-72
2024/03/21 03:43:45;;;;;;;13.23;5.93;;;;;;;;;;4870102;29;20049;-72
2024/03/21 03:46:14;;;;;;;15.88;5.53;;;;;;;;;;4869523;29;20505;-72
2024/03/21 03:48:42;;;;;;;11.85;5.85;;;;;;;;;;4869391;29;20052;-70
2024/03/21 03:51:10;;;;;;;13.35;5.47;;;;;;;;;;4869897;29;20049;-71
2024/03/21 03:53:38;;;;;;;13.20;5.65;;;;;;;;;;4870201;29;20048;-74
2024/03/21 03:56:07;;;;;;;9.75;5.22;;;;;;;;;;4869193;29;20064;-73
2024/03/21 03:58:36;;;;;;;11.32;5.45;;;;;;;;;;4869441;29;21138;-71
2024/03/21 04:01:05;;;;;;;20.25;5.75;;;;;;;;;;4869623;29;20554;-73
2024/03/21 04:03:33;;;;;;;10.93;5.43;;;;;;;;;;4869386;29;20060;-71
2024/03/21 04:06:04;;;;;;;9.10;4.40;;;;;;;;;;4870060;29;20053;-72
2024/03/21 04:08:32;;;;;;;11.52;4.30;;;;;;;;;;4868990;29;20053;-70
2024/03/21 04:11:01;;;;;;;7.13;4.00;;;;;;;;;;4869566;29;20409;-74
2024/03/21 04:13:29;;;;;;;8.05;4.70;;;;;;;;;;4853491;29;20057;-72
2024/03/21 04:15:58;;;;;;;6.28;4.38;;;;;;;;;;4854343;29;20037;-72
2024/03/21 04:18:26;;;;;;;6.95;4.35;;;;;;;;;;4854450;29;20045;-72
2024/03/21 04:20:56;;;;;;;6.85;4.03;;;;;;;;;;4869301;29;20041;-72
2024/03/21 04:23:24;;;;;;;6.15;3.95;;;;;;;;;;4869417;29;20591;-72
2024/03/21 04:25:53;;;;;;;5.05;3.70;;;;;;;;;;4869686;29;20053;-73
2024/03/21 04:28:22;;;;;;;5.45;3.67;;;;;;;;;;4868138;29;20537;-72
2024/03/21 04:30:51;;;;;;;6.93;3.35;;;;;;;;;;4868311;29;20053;-73
2024/03/21 04:33:19;;;;;;;9.30;4.28;;;;;;;;;;4868833;29;20048;-74
2024/03/21 04:35:49;;;;;;;8.85;4.15;;;;;;;;;;4869243;29;20049;-73
2024/03/21 04:38:17;;;;;;;6.72;3.60;;;;;;;;;;4869260;29;20044;-74
2024/03/21 04:40:46;;;;;;;7.25;3.85;;;;;;;;;;4868354;29;20611;-73
2024/03/21 04:43:15;;;;;;;7.13;4.10;;;;;;;;;;4868506;29;20052;-71
2024/03/21 04:45:43;;;;;;;7.40;3.90;;;;;;;;;;4869210;29;20057;-73
2024/03/21 04:48:12;;;;;;;8.43;4.68;;;;;;;;;;4868727;29;20056;-73
2024/03/21 04:50:40;;;;;;;7.47;4.55;;;;;;;;;;4869295;29;20045;-72
2024/03/21 04:53:08;;;;;;;8.70;4.43;;;;;;;;;;4868884;29;20057;-73
2024/03/21 04:55:37;;;;;;;12.02;4.40;;;;;;;;;;4869080;29;20061;-72
2024/03/21 04:58:06;;;;;;;;;;;;;;;;;;4869061;29;20512;-72
2024/03/21 05:00:34;;;;;;;9.57;4.28;;;;;;;;;;4868236;29;19950;-73
2024/03/21 05:03:03;;;;;;;6.60;3.90;;;;;;;;;;4852986;29;20060;-72
2024/03/21 05:05:31;;;;;;;6.45;3.80;;;;;;;;;;4869098;29;20045;-73
2024/03/21 05:08:00;;;;;;;10.48;3.80;;;;;;;;;;4868299;29;20041;-72
2024/03/21 05:10:28;;;;;;;11.25;4.10;;;;;;;;;;4868664;29;20516;-74
2024/03/21 05:12:57;;;;;;;5.35;3.70;;;;;;;;;;4868323;29;20056;-74
2024/03/21 05:15:26;;;;;;;7.03;3.85;;;;;;;;;;4868765;29;20535;-73
2024/03/21 05:17:54;;;;;;;7.45;4.28;;;;;;;;;;4868453;29;20065;-72
2024/03/21 05:20:27;;;;;;;6.40;3.72;;;;;;;;;;4867712;29;20126;-72
2024/03/21 05:22:55;;;;;;;9.25;3.72;;;;;;;;;;4868375;29;20504;-74
2024/03/21 05:25:23;;;;;;;5.43;3.67;;;;;;;;;;4852286;29;20049;-73
2024/03/21 05:27:52;;;;;;;6.53;2.88;;;;;;;;;;4868082;29;20056;-73
2024/03/21 05:30:20;;;;;;;9.10;3.22;;;;;;;;;;4867642;29;20045;-74
2024/03/21 05:32:49;;;;;;;6.10;3.35;;;;;;;;;;4868085;29;20057;-73
2024/03/21 05:35:17;;;;;;;4.70;2.95;;;;;;;;;;4867939;29;20464;-74
2024/03/21 05:37:46;;;;;;;4.78;3.13;;;;;;;;;;4852322;29;20424;-75
2024/03/21 05:40:14;;;;;;;5.15;2.83;;;;;;;;;;4867539;29;20059;-73
2024/03/21 05:42:43;;;;;;;3.72;2.33;;;;;;;;;;4867994;29;20056;-73
2024/03/21 05:45:11;;;;;;;4.53;2.70;;;;;;;;;;4868163;29;20053;-74
2024/03/21 05:47:40;;;;;;;2.58;2.30;;;;;;;;;;4852971;29;20048;-74
2024/03/21 05:50:09;;;;;;;4.03;2.65;;;;;;;;;;4867896;29;20053;-74
2024/03/21 05:52:38;;;;;;;6.65;2.22;;;;;;;;;;4868123;29;20049;-73
2024/03/21 05:55:07;;;;;;;4.65;2.10;;;;;;;;;;4867499;29;20064;-74
2024/03/21 05:57:38;;;;;;;6.03;2.30;;;;;;;;;;4867752;29;20788;-74
2024/03/21 06:00:10;;;;;;;2.50;2.00;;;;;;;;;;4867307;29;20734;-74
2024/03/21 06:02:40;;;;;;;2.30;2.10;;;;;;;;;;4867462;29;20041;-74
2024/03/21 06:05:09;;;;;;;2.95;1.95;;;;;;;;;;4866915;29;20521;-74
2024/03/21 06:07:38;;;;;;;3.95;1.83;;;;;;;;;;4867578;29;20645;-74
2024/03/21 06:10:08;;;;;;;2.28;1.50;;;;;;;;;;4868057;29;20413;-71
2024/03/21 06:12:36;;;;;;;3.25;2.03;;;;;;;;;;4867075;29;20060;-73
2024/03/21 06:15:05;;;;;;;3.22;2.13;;;;;;;;;;4867412;29;20045;-74
2024/03/21 06:17:34;;;;;;;2.88;2.00;;;;;;;;;;4867509;29;20596;-75
2024/03/21 06:20:02;;;;;;;2.60;2.03;;;;;;;;;;4867727;29;20072;-74
2024/03/21 06:22:33;;;;;;;5.38;2.10;;;;;;;;;;4867422;29;20570;-73
2024/03/21 06:25:03;;;;;;;2.47;1.90;;;;;;;;;;4867223;29;20045;-74
2024/03/21 06:27:31;;;;;;;4.82;1.98;;;;;;;;;;4867108;29;20049;-72
2024/03/21 06:30:00;;;;;;;6.25;2.22;;;;;;;;;;4867202;29;20068;-73
2024/03/21 06:32:29;;;;;;;3.00;2.05;;;;;;;;;;4868507;29;20056;-73
2024/03/21 06:34:57;;;;;;;4.13;1.85;;;;;;;;;;4867863;29;20049;-73
2024/03/21 06:37:26;;;;;;;3.63;2.15;;;;;;;;;;4867261;29;20056;-74
2024/03/21 06:39:54;;;;;;;2.25;1.67;;;;;;;;;;4866957;29;20079;-75
2024/03/21 06:42:23;;;;;;;1.75;1.55;;;;;;;;;;4851601;29;20072;-73
2024/03/21 06:44:51;;;;;;;2.08;1.60;;;;;;;;;;4866925;29;20090;-73
2024/03/21 06:47:20;;;;;;;2.17;1.50;;;;;;;;;;4867255;29;20045;-73
2024/03/21 06:49:49;;;;;;;2.72;1.63;;;;;;;;;;4867254;29;20551;-74
2024/03/21 06:52:19;;;;;;;2.20;1.40;;;;;;;;;;4868102;29;20053;-74
2024/03/21 06:54:48;;;;;;;3.75;1.77;;;;;;;;;;4869990;29;20064;-72
2024/03/21 06:57:16;;;;;;;3.22;1.08;;;;;;;;;;4870371;29;20425;-72
2024/03/21 06:59:44;;;;;;;2.28;1.48;;;;;;;;;;4870649;29;20056;-75
2024/03/21 07:02:15;;;;;;;2.20;1.40;;;;;;;;;;4870460;29;20528;-75
2024/03/21 07:04:44;;;;;;;2.65;1.75;;;;;;;;;;4870878;29;20056;-74
2024/03/21 07:07:13;;;;;;;2.22;1.25;;;;;;;;;;4870994;29;20044;-75
2024/03/21 07:09:42;;;;;;;1.27;1.17;;;;;;;;;;4870689;29;20060;-73
2024/03/21 07:12:10;;;;;;;1.63;1.40;;;;;;;;;;4870395;29;20509;-76
2024/03/21 07:14:39;;;;;;;3.25;1.15;;;;;;;;;;4870829;29;20079;-74
2024/03/21 07:17:07;;;;;;;2.47;1.30;;;;;;;;;;4870425;29;20513;-74
2024/03/21 07:19:36;;;;;;;3.60;2.05;;;;;;;;;;4870720;29;20049;-74
2024/03/21 07:22:04;;;;;;;2.47;1.08;;;;;;;;;;4869999;29;20053;-72
2024/03/21 07:24:32;;;;;;;1.35;1.17;;;;;;;;;;4854689;29;21239;-73
2024/03/21 07:27:04;;;;;;;1.05;0.90;;;;;;;;;;4869919;29;20049;-72
2024/03/21 07:29:33;;;;;;;2.00;0.93;;;;;;;;;;4870527;29;20049;-73
2024/03/21 07:32:06;;;;;;;2.33;0.90;;;;;;;;;;4869930;29;20045;-72
2024/03/21 07:34:35;;;;;;;2.92;0.70;;;;;;;;;;4869791;29;20658;-72
2024/03/21 07:37:04;;;;;;;6.13;0.90;;;;;;;;;;4869602;29;20056;-76
2024/03/21 07:39:35;;;;;;;5.00;1.20;;;;;;;;;;4869605;29;20059;-72
2024/03/21 07:42:05;;;;;;;;;;;;;;;;;;4870318;29;20057;-73
2024/03/21 07:44:34;;;;;;;4.55;1.15;;;;;;;;;;4869884;29;20229;-73
2024/03/21 07:47:03;;;;;;;3.08;1.05;;;;;;;;;;4870060;29;20041;-74
2024/03/21 07:49:32;;;;;;;1.58;0.93;;;;;;;;;;4870212;29;20056;-74
2024/03/21 07:52:01;;;;;;;1.77;0.98;;;;;;;;;;4870106;29;20366;-73
2024/03/21 07:54:32;;;;;;;0.90;0.80;;;;;;;;;;4869318;29;20056;-73
2024/03/21 07:57:02;;;;;;;3.60;1.08;;;;;;;;;;4869820;29;20056;-73
2024/03/21 07:59:30;;;;;;;0.80;0.80;;;;;;;;;;4869613;29;20063;-73
2024/03/21 08:01:58;;;;;;;3.92;0.88;;;;;;;;;;4870196;29;20064;-74
2024/03/21 08:04:27;;;;;;;1.88;1.15;;;;;;;;;;4869077;29;20045;-72
2024/03/21 08:06:59;;;;;;;10.90;1.33;;;;;;;;;;4869420;29;20053;-74
2024/03/21 08:09:28;;;;;;;9.07;0.80;;;;;;;;;;4867905;29;20512;-75
2024/03/21 08:11:56;;;;;;;6.25;1.35;;;;;;;;;;4865656;29;20057;-73
2024/03/21 08:14:25;;;;;;;10.23;1.05;;;;;;;;;;4866493;29;20053;-74
2024/03/21 08:16:53;;;;;;;9.20;1.20;;;;;;;;;;4866596;29;20496;-77
2024/03/21 08:19:22;;;;;;;5.32;1.20;;;;;;;;;;4866342;29;20583;-78
2024/03/21 08:21:50;;;;;;;5.28;1.15;;;;;;;;;;4866117;29;20076;-77
2024/03/21 08:24:22;;;;;;;0.98;0.57;;;;;;;;;;4866499;29;20057;-74
2024/03/21 08:26:50;;;;;;;1.23;0.57;;;;;;;;;;4866251;29;20052;-76
2024/03/21 08:29:20;;;;;;;0.85;0.65;;;;;;;;;;4866710;29;20053;-74
2024/03/21 08:31:49;;;;;;;3.83;0.60;;;;;;;;;;4866123;29;20053;-76
2024/03/21 08:49:49;;;;;;;1.58;0.47;;;;;;;;;;5141135;27;20772;-74
2024/03/21 08:52:18;;;;;;;1.63;0.68;;;;;;;;;;5122910;27;20535;-77
2024/03/21 08:54:46;;;;;;;1.33;0.47;;;;;;;;;;5122247;27;20057;-75
2024/03/21 08:57:14;;;;;;;2.35;0.63;;;;;;;;;;5122201;27;20046;-75
2024/03/21 08:59:43;;;;;;;3.85;0.90;;;;;;;;;;5105666;27;20066;-73
2024/03/21 09:02:13;;;;;;;5.20;0.73;;;;;;;;;;5122340;27;20054;-75
2024/03/21 09:04:41;;;;;;;3.85;1.10;;;;;;;;;;5104634;27;20047;-78
2024/03/21 09:07:10;;;;;;;6.05;1.08;;;;;;;;;;5121975;27;20493;-74
2024/03/21 09:09:38;;;;;;;1.85;0.80;;;;;;;;;;5121562;27;20046;-75
2024/03/21 09:12:07;;;;;;;;;;;;;;;;;;5122955;27;20043;-75
2024/03/21 09:14:35;;;;;;;4.07;0.90;;;;;;;;;;5122071;27;19934;-77
2024/03/21 09:17:07;;;;;;;3.08;0.77;;;;;;;;;;5121145;27;20042;-75
2024/03/21 09:19:35;;;;;;;3.33;0.60;;;;;;;;;;5105199;27;20050;-76
2024/03/21 09:22:03;;;;;;;5.97;1.25;;;;;;;;;;5105649;27;20039;-73
2024/03/21 09:24:32;;;;;;;7.78;1.08;;;;;;;;;;5121793;27;20428;-74
2024/03/21 09:27:01;;;;;;;10.35;1.00;;;;;;;;;;5121482;27;20492;-73
2024/03/21 09:29:29;;;;;;;6.32;1.00;;;;;;;;;;5121368;27;20039;-75
2024/03/21 09:31:58;;;;;;;9.45;1.35;;;;;;;;;;5121672;27;20051;-73
2024/03/21 09:34:26;;;;;;;4.03;1.00;;;;;;;;;;5122117;27;20046;-75
2024/03/21 09:36:54;;;;;;;8.65;3.95;;;;;;;;;;5122013;27;20485;-74
2024/03/21 09:39:22;;;;;;;4.90;0.90;;;;;;;;;;5137253;27;20031;-75
2024/03/21 09:41:53;;;;;;;3.53;1.00;;;;;;;;;;5138595;27;20062;-75
2024/03/21 09:44:29;;;;;;;3.35;1.02;;;;;;;;;;5138707;27;20054;-74
2024/03/21 09:47:00;;;;;;;5.63;0.70;;;;;;;;;;5138317;27;20585;-73
2024/03/21 09:49:30;;;;;;;4.50;0.68;;;;;;;;;;5131712;27;20071;-75
2024/03/21 09:51:59;;;;;;;1.77;0.60;;;;;;;;;;5124348;27;20047;-74
2024/03/21 09:54:27;;;;;;;2.67;0.57;;;;;;;;;;5107908;27;20074;-72
2024/03/21 09:56:56;;;;;;;4.43;0.80;;;;;;;;;;5123831;27;20050;-72
2024/03/21 09:59:25;;;;;;;3.38;0.90;;;;;;;;;;5124300;27;20055;-75
2024/03/21 10:01:53;;;;;;;4.78;0.80;;;;;;;;;;5123889;27;20047;-74
2024/03/21 10:04:22;;;;;;;5.18;0.80;;;;;;;;;;5124626;27;20062;-72
2024/03/21 10:06:51;;;;;;;4.80;1.13;;;;;;;;;;5125130;27;20042;-75
2024/03/21 10:09:20;;;;;;;7.55;0.93;;;;;;;;;;5124459;27;20050;-75
2024/03/21 10:11:49;;;;;;;5.95;0.90;;;;;;;;;;5123983;27;20054;-74
2024/03/21 10:14:18;;;;;;;8.13;0.95;;;;;;;;;;5124202;27;20047;-76
2024/03/21 10:16:46;;;;;;;4.22;0.75;;;;;;;;;;5124692;27;20047;-86
2024/03/21 10:19:15;;;;;;;9.77;1.60;;;;;;;;;;5123697;27;20055;-77
2024/03/21 10:21:43;;;;;;;2.13;0.88;;;;;;;;;;5107502;27;20054;-76
2024/03/21 10:24:15;;;;;;;4.53;1.23;;;;;;;;;;5106327;27;20063;-77
2024/03/21 10:26:44;;;;;;;5.53;1.10;;;;;;;;;;5123953;27;20039;-81
2024/03/21 10:29:15;;;;;;;5.13;2.53;;;;;;;;;;5106581;27;20058;-78
2024/03/21 10:31:45;;;;;;;3.65;0.80;;;;;;;;;;5123971;27;20649;-78
2024/03/21 10:34:16;;;;;;;2.00;0.63;;;;;;;;;;5106840;27;20043;-77
2024/03/21 10:36:44;;;;;;;1.27;0.52;;;;;;;;;;5123414;27;20400;-74
2024/03/21 10:39:13;;;;;;;0.95;0.50;;;;;;;;;;5106569;27;20039;-75
2024/03/21 10:41:44;;;;;;;1.50;0.65;;;;;;;;;;5112600;27;20044;-76
2024/03/21 10:44:17;;;;;;;2.67;0.55;;;;;;;;;;5103411;28;20101;-75
2024/03/21 10:46:47;;;;;;;1.77;0.80;;;;;;;;;;5102886;28;20048;-78
2024/03/21 10:49:16;;;;;;;4.97;0.52;;;;;;;;;;5068961;28;20090;-73
2024/03/21 10:51:45;;;;;;;;;;;;;;;;;;5103404;28;20043;-80
2024/03/21 10:54:19;;;;;;;4.10;0.70;;;;;;;;;;5103231;28;20385;-77
2024/03/21 10:56:48;;;;;;;6.57;1.20;;;;;;;;;;5103366;28;20040;-77
2024/03/21 10:59:16;;;;;;;2.38;0.93;;;;;;;;;;5103914;28;20047;-79
2024/03/21 11:01:47;;;;;;;2.80;0.50;;;;;;;;;;5101705;28;20035;-75
2024/03/21 11:04:16;;;;;;;1.80;0.82;;;;;;;;;;5103029;28;20485;-80
2024/03/21 11:06:46;;;;;;;1.83;1.00;;;;;;;;;;5102206;28;20044;-75
2024/03/21 11:09:16;;;;;;;3.33;1.10;;;;;;;;;;5102279;28;20039;-77
2024/03/21 11:11:44;;;;;;;6.57;1.30;;;;;;;;;;5102802;28;20417;-76
2024/03/21 11:14:15;;;;;;;2.35;1.33;;;;;;;;;;5102082;28;20036;-76
2024/03/21 11:16:43;;;;;;;1.98;1.17;;;;;;;;;;5102177;28;20058;-74
2024/03/21 11:19:11;;;;;;;2.35;1.00;;;;;;;;;;5101693;28;20090;-76
2024/03/21 11:21:41;;;;;;;3.83;0.75;;;;;;;;;;5102386;28;20047;-76
2024/03/21 11:24:18;;;;;;;3.70;0.90;;;;;;;;;;5102144;28;20050;-74
2024/03/21 11:26:46;;;;;;;3.55;0.90;;;;;;;;;;5102831;28;20084;-75
2024/03/21 11:29:15;;;;;;;4.70;2.10;;;;;;;;;;5102306;28;20036;-76
2024/03/21 11:31:44;;;;;;;3.22;1.10;;;;;;;;;;5103488;28;20047;-76
2024/03/21 11:34:15;;;;;;;5.00;0.70;;;;;;;;;;5085480;28;20438;-75
2024/03/21 11:36:45;;;;;;;1.67;0.68;;;;;;;;;;5087019;28;20071;-74
2024/03/21 11:39:15;;;;;;;1.65;0.90;;;;;;;;;;5101392;28;20049;-75
2024/03/21 11:41:44;;;;;;;1.15;0.63;;;;;;;;;;5085576;28;20052;-76
2024/03/21 11:44:16;;;;;;;2.25;0.77;;;;;;;;;;5101510;28;20055;-87
2024/03/21 11:46:46;;;;;;;4.57;0.90;;;;;;;;;;5085557;28;20052;-76
2024/03/21 11:49:14;;;;;;;1.42;1.00;;;;;;;;;;5101015;28;20058;-74
2024/03/21 11:51:42;;;;;;;6.55;0.93;;;;;;;;;;5101679;28;20054;-74
2024/03/21 11:54:12;;;;;;;2.88;0.85;;;;;;;;;;5101056;28;20043;-74
2024/03/21 11:56:41;;;;;;;2.58;0.93;;;;;;;;;;5100849;28;20531;-80
2024/03/21 11:59:10;;;;;;;3.85;1.10;;;;;;;;;;5084914;28;20066;-75
2024/03/21 12:01:39;;;;;;;2.20;0.65;;;;;;;;;;5101317;28;20044;-75
2024/03/21 12:04:08;;;;;;;4.45;1.10;;;;;;;;;;5101528;28;20524;-75
2024/03/21 12:06:37;;;;;;;4.43;0.75;;;;;;;;;;5101494;28;20111;-74
2024/03/21 12:09:05;;;;;;;2.17;1.02;;;;;;;;;;5101591;28;20055;-75
2024/03/21 12:11:34;;;;;;;2.10;0.70;;;;;;;;;;5101572;28;20725;-75
2024/03/21 12:14:03;;;;;;;7.25;1.00;;;;;;;;;;5084420;28;20047;-75
2024/03/21 12:16:32;;;;;;;2.90;0.90;;;;;;;;;;5101904;28;20044;-75
2024/03/21 12:19:00;;;;;;;1.15;0.85;;;;;;;;;;5101284;28;20047;-77
2024/03/21 12:21:29;;;;;;;2.95;0.90;;;;;;;;;;5102101;28;20378;-75
2024/03/21 12:23:59;;;;;;;4.05;1.10;;;;;;;;;;5101820;28;20044;-75
2024/03/21 12:26:28;;;;;;;3.20;0.90;;;;;;;;;;5102126;28;20050;-74
2024/03/21 12:29:00;;;;;;;1.88;0.80;;;;;;;;;;5085003;28;20402;-73
2024/03/21 12:31:28;;;;;;;3.38;1.00;;;;;;;;;;5101385;28;20039;-73
2024/03/21 12:33:59;;;;;;;3.33;1.08;;;;;;;;;;5101036;28;20051;-73
2024/03/21 12:36:28;;;;;;;2.95;1.17;;;;;;;;;;5101438;28;20054;-81
2024/03/21 12:38:56;;;;;;;5.65;1.30;;;;;;;;;;5101458;28;20774;-77
2024/03/21 12:41:25;;;;;;;3.13;1.35;;;;;;;;;;5101754;28;20062;-73
2024/03/21 12:43:56;;;;;;;6.18;1.30;;;;;;;;;;5100787;28;20051;-75
2024/03/21 12:46:24;;;;;;;2.72;1.60;;;;;;;;;;5100485;28;20040;-74
2024/03/21 12:48:53;;;;;;;6.25;1.17;;;;;;;;;;5100802;28;20498;-72
2024/03/21 12:51:21;;;;;;;1.55;1.13;;;;;;;;;;5100698;28;20413;-74
2024/03/21 12:53:50;;;;;;;4.93;1.00;;;;;;;;;;5100785;28;20863;-73
2024/03/21 12:56:18;;;;;;;4.97;1.10;;;;;;;;;;5101110;28;20052;-75
2024/03/21 12:58:48;;;;;;;5.75;1.15;;;;;;;;;;5100785;28;20051;-76
2024/03/21 13:01:16;;;;;;;6.38;1.40;;;;;;;;;;5100826;28;20048;-74
2024/03/21 13:03:44;;;;;;;8.45;1.10;;;;;;;;;;5100725;28;20054;-73
2024/03/21 13:06:13;;;;;;;3.78;1.52;;;;;;;;;;5100456;28;20046;-73
2024/03/21 13:08:41;;;;;;;2.45;0.98;;;;;;;;;;5084233;28;20035;-74
2024/03/21 13:11:10;;;;;;;5.07;1.02;;;;;;;;;;5101091;28;20054;-72
2024/03/21 13:13:38;;;;;;;2.47;0.93;;;;;;;;;;5101278;28;20046;-74
2024/03/21 13:16:08;;;;;;;5.18;1.48;;;;;;;;;;5101270;28;20044;-75
2024/03/21 13:18:36;;;;;;;2.20;1.20;;;;;;;;;;5100672;28;20047;-73
2024/03/21 13:21:06;;;;;;;3.10;1.27;;;;;;;;;;5100730;28;20050;-74
2024/03/21 13:23:35;;;;;;;3.67;1.27;;;;;;;;;;5101127;28;20066;-72
2024/03/21 13:26:04;;;;;;;1.23;0.98;;;;;;;;;;5104242;28;20036;-73
2024/03/21 13:28:32;;;;;;;3.15;0.95;;;;;;;;;;5104570;28;20055;-74
2024/03/21 13:31:03;;;;;;;2.03;1.08;;;;;;;;;;5104716;28;20056;-74
2024/03/21 13:33:32;;;;;;;1.63;1.08;;;;;;;;;;5104072;28;20040;-72
2024/03/21 13:36:01;;;;;;;3.13;1.35;;;;;;;;;;5108079;28;20036;-75
2024/03/21 13:38:30;;;;;;;9.73;2.42;;;;;;;;;;5109324;28;20051;-72
2024/03/21 13:40:58;;;;;;;2.58;1.10;;;;;;;;;;5105436;28;20039;-73
2024/03/21 13:43:27;;;;;;;3.90;1.08;;;;;;;;;;5089044;28;20051;-71
2024/03/21 13:45:56;;;;;;;1.95;1.00;;;;;;;;;;5110656;28;20047;-72
2024/03/21 13:48:25;;;;;;;3.42;1.08;;;;;;;;;;5105279;28;20067;-73
2024/03/21 13:50:54;;;;;;;4.55;1.13;;;;;;;;;;5104680;28;20044;-74
2024/03/21 13:53:23;;;;;;;2.67;1.00;;;;;;;;;;5104644;28;20039;-74
2024/03/21 13:55:51;;;;;;;2.22;0.88;;;;;;;;;;5106725;28;20043;-73
2024/03/21 13:58:20;;;;;;;1.60;1.00;;;;;;;;;;5105556;28;20032;-74
2024/03/21 14:00:48;;;;;;;2.45;1.10;;;;;;;;;;5104818;28;20047;-73
2024/03/21 14:03:17;;;;;;;2.83;1.15;;;;;;;;;;5104752;28;20043;-74
2024/03/21 14:05:46;;;;;;;2.53;1.10;;;;;;;;;;5103786;28;20036;-71
2024/03/21 14:08:23;;;;;;;2.25;1.00;;;;;;;;;;5104089;28;20035;-74
2024/03/21 14:10:52;;;;;;;5.63;1.20;;;;;;;;;;5086728;28;20052;-74
2024/03/21 14:13:21;;;;;;;1.65;0.85;;;;;;;;;;5103397;28;20050;-72
2024/03/21 14:15:53;;;;;;;3.15;1.25;;;;;;;;;;5104239;28;20048;-74
2024/03/21 14:18:21;;;;;;;4.40;1.10;;;;;;;;;;5103185;28;20595;-73
2024/03/21 14:20:59;;;;;;;1.73;0.90;;;;;;;;;;5103696;28;20046;-72
2024/03/21 14:23:28;;;;;;;4.85;0.88;;;;;;;;;;5103701;28;20058;-75
2024/03/21 14:25:56;;;;;;;1.88;0.85;;;;;;;;;;5103767;28;20043;-73
2024/03/21 14:28:26;;;;;;;6.75;4.68;;;;;;;;;;5104344;28;20042;-73
2024/03/21 14:30:54;;;;;;;1.60;0.73;;;;;;;;;;5104492;28;20046;-73
2024/03/21 14:33:24;;;;;;;2.42;0.70;;;;;;;;;;5103728;28;20046;-73
2024/03/21 14:35:53;;;;;;;2.67;0.50;;;;;;;;;;5103495;28;20055;-72
2024/03/21 14:38:21;;;;;;;2.00;0.47;;;;;;;;;;5103771;28;20054;-75
2024/03/21 14:40:49;;;;;;;1.48;0.60;;;;;;;;;;5103230;28;20051;-73
2024/03/21 14:43:18;;;;;;;2.15;0.43;;;;;;;;;;5102730;28;20110;-74
2024/03/21 14:45:47;;;;;;;8.32;6.13;;;;;;;;;;5103321;28;20048;-72
2024/03/21 14:48:15;;;;;;;2.05;1.45;;;;;;;;;;5103332;28;20616;-73
2024/03/21 14:50:44;;;;;;;1.05;0.60;;;;;;;;;;5103093;28;20409;-72
2024/03/21 14:53:13;;;;;;;2.90;0.60;;;;;;;;;;5103011;28;20044;-73
2024/03/21 14:55:41;;;;;;;6.43;1.00;;;;;;;;;;5104598;28;20051;-74
2024/03/21 14:58:10;;;;;;;4.32;0.73;;;;;;;;;;5103809;28;20036;-74
2024/03/21 15:00:39;;;;;;;1.30;0.52;;;;;;;;;;5105839;28;20044;-74
2024/03/21 15:03:08;;;;;;;2.28;0.50;;;;;;;;;;5102576;28;20040;-74
2024/03/21 15:05:36;;;;;;;1.15;0.77;;;;;;;;;;5103382;28;20052;-72
2024/03/21 15:08:05;;;;;;;1.38;0.60;;;;;;;;;;5102106;28;20048;-77
2024/03/21 15:10:33;;;;;;;1.27;0.82;;;;;;;;;;5102384;28;20043;-74
2024/03/21 15:13:02;;;;;;;3.90;0.80;;;;;;;;;;5102568;28;20043;-79
2024/03/21 15:15:31;;;;;;;2.65;0.93;;;;;;;;;;5086944;28;20533;-75